sensor_id;sensor_type;location;lat;lon;timestamp;P1;durP1;ratioP1;P2;durP2;ratioP2
12232;SDS011;6179;51.748;8.728;2022-09-19T00:05:26;7.83;;;0.50;;
12232;SDS011;6179;51.748;8.728;2022-09-19T00:11:26;5.37;;;1.10;;
12232;SDS011;6179;51.748;8.728;2022-09-19T00:17:27;4.83;;;0.80;;
12232;SDS011;6179;51.748;8.728;2022-09-19T00:23:28;3.67;;;0.50;;
12232;SDS011;6179;51.748;8.728;2022-09-19T00:29:48;11.57;;;0.70;;
12232;SDS011;6179;51.748;8.728;2022-09-19T00:35:49;5.13;;;0.70;;
12232;SDS011;6179;51.748;8.728;2022-09-19T00:41:54;8.83;;;1.10;;
12232;SDS011;6179;51.748;8.728;2022-09-19T00:47:55;3.97;;;0.80;;
12232;SDS011;6179;51.748;8.728;2022-09-19T00:54:00;4.60;;;1.03;;
12232;SDS011;6179;51.748;8.728;2022-09-19T01:00:08;10.77;;;1.33;;
12232;SDS011;6179;51.748;8.728;2022-09-19T01:18:43;13.73;;;1.00;;
12232;SDS011;6179;51.748;8.728;2022-09-19T01:31:44;8.53;;;0.97;;
12232;SDS011;6179;51.748;8.728;2022-09-19T01:37:53;2.70;;;0.70;;
12232;SDS011;6179;51.748;8.728;2022-09-19T01:44:16;3.73;;;0.70;;
12232;SDS011;6179;51.748;8.728;2022-09-19T02:03:44;0.50;;;0.50;;
12232;SDS011;6179;51.748;8.728;2022-09-19T02:10:13;11.50;;;1.53;;
12232;SDS011;6179;51.748;8.728;2022-09-19T02:16:31;4.63;;;1.07;;
12232;SDS011;6179;51.748;8.728;2022-09-19T02:22:40;11.83;;;1.30;;
12232;SDS011;6179;51.748;8.728;2022-09-19T02:28:49;15.17;;;1.20;;
12232;SDS011;6179;51.748;8.728;2022-09-19T02:34:56;1.93;;;0.90;;
12232;SDS011;6179;51.748;8.728;2022-09-19T02:41:01;3.83;;;1.03;;
12232;SDS011;6179;51.748;8.728;2022-09-19T02:47:29;19.57;;;2.13;;
12232;SDS011;6179;51.748;8.728;2022-09-19T02:54:51;8.23;;;1.00;;
12232;SDS011;6179;51.748;8.728;2022-09-19T03:00:35;15.07;;;1.97;;
12232;SDS011;6179;51.748;8.728;2022-09-19T03:06:50;16.73;;;1.03;;
12232;SDS011;6179;51.748;8.728;2022-09-19T03:13:07;11.00;;;2.03;;
12232;SDS011;6179;51.748;8.728;2022-09-19T03:19:10;3.70;;;1.50;;
12232;SDS011;6179;51.748;8.728;2022-09-19T03:25:12;7.50;;;1.73;;
12232;SDS011;6179;51.748;8.728;2022-09-19T03:31:16;8.23;;;1.17;;
12232;SDS011;6179;51.748;8.728;2022-09-19T03:37:17;3.73;;;1.30;;
12232;SDS011;6179;51.748;8.728;2022-09-19T03:43:18;10.23;;;1.67;;
12232;SDS011;6179;51.748;8.728;2022-09-19T03:49:20;5.97;;;0.93;;
12232;SDS011;6179;51.748;8.728;2022-09-19T03:55:20;10.13;;;1.50;;
12232;SDS011;6179;51.748;8.728;2022-09-19T04:01:21;15.37;;;1.67;;
12232;SDS011;6179;51.748;8.728;2022-09-19T04:07:22;16.23;;;1.13;;
12232;SDS011;6179;51.748;8.728;2022-09-19T04:13:25;9.37;;;2.27;;
12232;SDS011;6179;51.748;8.728;2022-09-19T04:19:27;5.43;;;1.27;;
12232;SDS011;6179;51.748;8.728;2022-09-19T04:25:30;9.20;;;1.30;;
12232;SDS011;6179;51.748;8.728;2022-09-19T04:31:35;20.53;;;1.40;;
12232;SDS011;6179;51.748;8.728;2022-09-19T04:37:39;9.00;;;1.17;;
12232;SDS011;6179;51.748;8.728;2022-09-19T04:43:40;4.27;;;1.53;;
12232;SDS011;6179;51.748;8.728;2022-09-19T04:49:41;6.13;;;1.13;;
12232;SDS011;6179;51.748;8.728;2022-09-19T04:55:41;11.77;;;2.13;;
12232;SDS011;6179;51.748;8.728;2022-09-19T05:01:43;11.00;;;1.53;;
12232;SDS011;6179;51.748;8.728;2022-09-19T05:07:44;9.63;;;2.00;;
12232;SDS011;6179;51.748;8.728;2022-09-19T05:13:45;12.70;;;1.50;;
12232;SDS011;6179;51.748;8.728;2022-09-19T05:19:48;2.30;;;1.60;;
12232;SDS011;6179;51.748;8.728;2022-09-19T05:25:49;6.33;;;1.20;;
12232;SDS011;6179;51.748;8.728;2022-09-19T05:31:54;14.73;;;1.63;;
12232;SDS011;6179;51.748;8.728;2022-09-19T05:38:02;10.43;;;1.50;;
12232;SDS011;6179;51.748;8.728;2022-09-19T05:44:03;9.97;;;1.00;;
12232;SDS011;6179;51.748;8.728;2022-09-19T05:50:05;4.50;;;1.87;;
12232;SDS011;6179;51.748;8.728;2022-09-19T05:56:09;12.83;;;1.83;;
12232;SDS011;6179;51.748;8.728;2022-09-19T06:02:10;14.83;;;1.30;;
12232;SDS011;6179;51.748;8.728;2022-09-19T06:08:12;5.60;;;1.40;;
12232;SDS011;6179;51.748;8.728;2022-09-19T06:14:13;7.57;;;1.10;;
12232;SDS011;6179;51.748;8.728;2022-09-19T06:20:14;2.50;;;0.90;;
12232;SDS011;6179;51.748;8.728;2022-09-19T06:26:16;10.33;;;1.20;;
12232;SDS011;6179;51.748;8.728;2022-09-19T06:32:17;12.47;;;1.33;;
12232;SDS011;6179;51.748;8.728;2022-09-19T06:38:18;26.80;;;1.73;;
12232;SDS011;6179;51.748;8.728;2022-09-19T06:44:19;24.23;;;3.00;;
12232;SDS011;6179;51.748;8.728;2022-09-19T06:50:20;19.63;;;2.80;;
12232;SDS011;6179;51.748;8.728;2022-09-19T06:56:21;16.00;;;2.67;;
12232;SDS011;6179;51.748;8.728;2022-09-19T07:02:22;19.73;;;2.87;;
12232;SDS011;6179;51.748;8.728;2022-09-19T07:08:22;5.53;;;2.50;;
12232;SDS011;6179;51.748;8.728;2022-09-19T07:14:24;16.50;;;2.50;;
12232;SDS011;6179;51.748;8.728;2022-09-19T07:20:26;18.90;;;1.80;;
12232;SDS011;6179;51.748;8.728;2022-09-19T07:26:30;10.63;;;2.20;;
12232;SDS011;6179;51.748;8.728;2022-09-19T07:32:35;4.73;;;1.23;;
12232;SDS011;6179;51.748;8.728;2022-09-19T07:38:36;10.93;;;1.73;;
12232;SDS011;6179;51.748;8.728;2022-09-19T07:44:37;12.97;;;1.13;;
12232;SDS011;6179;51.748;8.728;2022-09-19T07:50:38;10.70;;;1.90;;
12232;SDS011;6179;51.748;8.728;2022-09-19T07:56:38;5.90;;;1.77;;
12232;SDS011;6179;51.748;8.728;2022-09-19T08:02:39;8.93;;;1.60;;
12232;SDS011;6179;51.748;8.728;2022-09-19T08:08:40;15.23;;;1.60;;
12232;SDS011;6179;51.748;8.728;2022-09-19T08:14:41;9.63;;;1.50;;
12232;SDS011;6179;51.748;8.728;2022-09-19T08:20:42;4.70;;;1.40;;
12232;SDS011;6179;51.748;8.728;2022-09-19T08:26:44;8.10;;;1.80;;
12232;SDS011;6179;51.748;8.728;2022-09-19T08:32:46;10.23;;;1.00;;
12232;SDS011;6179;51.748;8.728;2022-09-19T08:38:51;8.13;;;0.90;;
12232;SDS011;6179;51.748;8.728;2022-09-19T08:45:06;9.60;;;1.10;;
12232;SDS011;6179;51.748;8.728;2022-09-19T08:58:18;5.40;;;1.47;;
12232;SDS011;6179;51.748;8.728;2022-09-19T09:04:28;4.57;;;1.37;;
12232;SDS011;6179;51.748;8.728;2022-09-19T09:23:27;7.10;;;0.80;;
12232;SDS011;6179;51.748;8.728;2022-09-19T09:29:36;10.73;;;1.50;;
12232;SDS011;6179;51.748;8.728;2022-09-19T09:35:46;20.27;;;1.57;;
12232;SDS011;6179;51.748;8.728;2022-09-19T09:41:55;8.10;;;1.00;;
12232;SDS011;6179;51.748;8.728;2022-09-19T09:48:19;8.23;;;0.80;;
12232;SDS011;6179;51.748;8.728;2022-09-19T10:07:44;18.50;;;1.20;;
12232;SDS011;6179;51.748;8.728;2022-09-19T10:13:58;3.87;;;0.60;;
12232;SDS011;6179;51.748;8.728;2022-09-19T10:20:03;1.90;;;0.80;;
12232;SDS011;6179;51.748;8.728;2022-09-19T10:26:16;7.53;;;0.70;;
12232;SDS011;6179;51.748;8.728;2022-09-19T10:32:31;2.70;;;0.60;;
12232;SDS011;6179;51.748;8.728;2022-09-19T10:38:46;3.80;;;0.87;;
12232;SDS011;6179;51.748;8.728;2022-09-19T10:44:52;6.63;;;0.80;;
12232;SDS011;6179;51.748;8.728;2022-09-19T10:50:54;3.37;;;0.70;;
12232;SDS011;6179;51.748;8.728;2022-09-19T10:56:59;12.53;;;1.20;;
12232;SDS011;6179;51.748;8.728;2022-09-19T11:03:02;6.70;;;0.50;;
12232;SDS011;6179;51.748;8.728;2022-09-19T11:09:27;5.70;;;0.60;;
12232;SDS011;6179;51.748;8.728;2022-09-19T11:15:35;12.10;;;1.13;;
12232;SDS011;6179;51.748;8.728;2022-09-19T11:34:47;5.67;;;0.90;;
12232;SDS011;6179;51.748;8.728;2022-09-19T12:14:49;11.33;;;0.80;;
12232;SDS011;6179;51.748;8.728;2022-09-19T12:20:57;5.43;;;0.50;;
12232;SDS011;6179;51.748;8.728;2022-09-19T12:27:06;2.60;;;0.40;;
12232;SDS011;6179;51.748;8.728;2022-09-19T12:33:28;5.80;;;1.30;;
12232;SDS011;6179;51.748;8.728;2022-09-19T12:39:54;6.47;;;0.50;;
12232;SDS011;6179;51.748;8.728;2022-09-19T12:52:36;5.80;;;0.50;;
12232;SDS011;6179;51.748;8.728;2022-09-19T13:05:18;5.13;;;0.50;;
12232;SDS011;6179;51.748;8.728;2022-09-19T13:11:37;3.60;;;0.50;;
12232;SDS011;6179;51.748;8.728;2022-09-19T13:17:41;17.33;;;0.73;;
12232;SDS011;6179;51.748;8.728;2022-09-19T13:24:05;3.33;;;0.60;;
12232;SDS011;6179;51.748;8.728;2022-09-19T13:36:48;5.20;;;0.40;;
12232;SDS011;6179;51.748;8.728;2022-09-19T13:42:54;0.70;;;0.50;;
12232;SDS011;6179;51.748;8.728;2022-09-19T13:49:29;2.13;;;0.40;;
12232;SDS011;6179;51.748;8.728;2022-09-19T13:55:45;5.20;;;0.40;;
12232;SDS011;6179;51.748;8.728;2022-09-19T14:02:01;0.50;;;0.40;;
12232;SDS011;6179;51.748;8.728;2022-09-19T14:08:54;3.80;;;0.60;;
12232;SDS011;6179;51.748;8.728;2022-09-19T14:47:06;2.80;;;0.73;;
12232;SDS011;6179;51.748;8.728;2022-09-19T14:53:20;12.60;;;0.40;;
12232;SDS011;6179;51.748;8.728;2022-09-19T14:59:29;2.20;;;0.40;;
12232;SDS011;6179;51.748;8.728;2022-09-19T15:05:34;1.23;;;0.40;;
12232;SDS011;6179;51.748;8.728;2022-09-19T15:11:46;5.30;;;0.40;;
12232;SDS011;6179;51.748;8.728;2022-09-19T15:17:51;0.30;;;0.30;;
12232;SDS011;6179;51.748;8.728;2022-09-19T15:23:56;2.10;;;0.40;;
12232;SDS011;6179;51.748;8.728;2022-09-19T15:30:07;4.73;;;0.47;;
12232;SDS011;6179;51.748;8.728;2022-09-19T15:36:22;1.33;;;0.30;;
12232;SDS011;6179;51.748;8.728;2022-09-19T15:42:23;4.07;;;0.50;;
12232;SDS011;6179;51.748;8.728;2022-09-19T15:48:26;0.70;;;0.40;;
12232;SDS011;6179;51.748;8.728;2022-09-19T15:54:50;7.50;;;0.63;;
12232;SDS011;6179;51.748;8.728;2022-09-19T16:00:53;0.40;;;0.40;;
12232;SDS011;6179;51.748;8.728;2022-09-19T16:06:57;2.77;;;0.50;;
12232;SDS011;6179;51.748;8.728;2022-09-19T16:19:41;5.83;;;0.50;;
12232;SDS011;6179;51.748;8.728;2022-09-19T16:25:47;4.10;;;0.67;;
12232;SDS011;6179;51.748;8.728;2022-09-19T16:31:56;0.90;;;0.37;;
12232;SDS011;6179;51.748;8.728;2022-09-19T16:38:06;0.60;;;0.47;;
12232;SDS011;6179;51.748;8.728;2022-09-19T16:50:19;4.63;;;0.50;;
12232;SDS011;6179;51.748;8.728;2022-09-19T16:56:25;4.63;;;0.60;;
12232;SDS011;6179;51.748;8.728;2022-09-19T17:02:26;2.20;;;0.50;;
12232;SDS011;6179;51.748;8.728;2022-09-19T17:08:32;3.33;;;0.50;;
12232;SDS011;6179;51.748;8.728;2022-09-19T17:14:32;3.63;;;0.53;;
12232;SDS011;6179;51.748;8.728;2022-09-19T17:20:36;0.63;;;0.50;;
12232;SDS011;6179;51.748;8.728;2022-09-19T17:26:40;5.50;;;0.60;;
12232;SDS011;6179;51.748;8.728;2022-09-19T17:32:42;1.60;;;0.80;;
12232;SDS011;6179;51.748;8.728;2022-09-19T17:38:46;3.67;;;1.20;;
12232;SDS011;6179;51.748;8.728;2022-09-19T17:44:47;1.43;;;0.77;;
12232;SDS011;6179;51.748;8.728;2022-09-19T17:50:51;4.33;;;0.70;;
12232;SDS011;6179;51.748;8.728;2022-09-19T17:56:53;3.67;;;0.80;;
12232;SDS011;6179;51.748;8.728;2022-09-19T18:02:53;3.17;;;0.60;;
12232;SDS011;6179;51.748;8.728;2022-09-19T18:09:13;1.23;;;0.70;;
12232;SDS011;6179;51.748;8.728;2022-09-19T18:15:14;11.53;;;0.70;;
12232;SDS011;6179;51.748;8.728;2022-09-19T18:21:15;0.93;;;0.60;;
12232;SDS011;6179;51.748;8.728;2022-09-19T18:27:16;1.70;;;0.40;;
12232;SDS011;6179;51.748;8.728;2022-09-19T18:33:17;4.30;;;0.47;;
12232;SDS011;6179;51.748;8.728;2022-09-19T18:39:18;3.30;;;0.90;;
12232;SDS011;6179;51.748;8.728;2022-09-19T18:45:19;0.97;;;0.50;;
12232;SDS011;6179;51.748;8.728;2022-09-19T18:51:20;4.77;;;0.70;;
12232;SDS011;6179;51.748;8.728;2022-09-19T18:57:24;0.73;;;0.60;;
12232;SDS011;6179;51.748;8.728;2022-09-19T19:03:27;3.40;;;1.23;;
12232;SDS011;6179;51.748;8.728;2022-09-19T19:09:27;0.80;;;0.60;;
12232;SDS011;6179;51.748;8.728;2022-09-19T19:15:28;2.77;;;0.53;;
12232;SDS011;6179;51.748;8.728;2022-09-19T19:21:31;18.23;;;0.87;;
12232;SDS011;6179;51.748;8.728;2022-09-19T19:27:40;4.93;;;0.80;;
12232;SDS011;6179;51.748;8.728;2022-09-19T19:33:41;1.53;;;0.60;;
12232;SDS011;6179;51.748;8.728;2022-09-19T19:39:42;6.00;;;0.80;;
12232;SDS011;6179;51.748;8.728;2022-09-19T19:45:45;2.13;;;0.70;;
12232;SDS011;6179;51.748;8.728;2022-09-19T19:51:47;10.07;;;2.30;;
12232;SDS011;6179;51.748;8.728;2022-09-19T19:57:48;3.37;;;0.90;;
12232;SDS011;6179;51.748;8.728;2022-09-19T20:03:55;5.73;;;1.40;;
12232;SDS011;6179;51.748;8.728;2022-09-19T20:09:59;3.30;;;2.37;;
12232;SDS011;6179;51.748;8.728;2022-09-19T20:16:04;25.43;;;1.47;;
12232;SDS011;6179;51.748;8.728;2022-09-19T20:22:09;6.27;;;1.23;;
12232;SDS011;6179;51.748;8.728;2022-09-19T20:28:10;8.33;;;1.50;;
12232;SDS011;6179;51.748;8.728;2022-09-19T20:34:11;5.87;;;1.43;;
12232;SDS011;6179;51.748;8.728;2022-09-19T20:40:11;12.70;;;1.57;;
12232;SDS011;6179;51.748;8.728;2022-09-19T20:46:13;12.77;;;0.80;;
12232;SDS011;6179;51.748;8.728;2022-09-19T20:52:16;4.20;;;0.77;;
12232;SDS011;6179;51.748;8.728;2022-09-19T20:58:17;2.63;;;0.60;;
12232;SDS011;6179;51.748;8.728;2022-09-19T21:04:18;2.93;;;0.70;;
12232;SDS011;6179;51.748;8.728;2022-09-19T21:10:20;2.50;;;0.70;;
12232;SDS011;6179;51.748;8.728;2022-09-19T21:16:25;3.70;;;1.03;;
12232;SDS011;6179;51.748;8.728;2022-09-19T21:22:29;5.40;;;0.70;;
12232;SDS011;6179;51.748;8.728;2022-09-19T21:28:30;4.13;;;0.63;;
12232;SDS011;6179;51.748;8.728;2022-09-19T21:34:33;12.60;;;0.87;;
12232;SDS011;6179;51.748;8.728;2022-09-19T21:40:34;2.50;;;0.70;;
12232;SDS011;6179;51.748;8.728;2022-09-19T21:46:36;6.17;;;0.60;;
12232;SDS011;6179;51.748;8.728;2022-09-19T21:52:37;2.37;;;0.50;;
12232;SDS011;6179;51.748;8.728;2022-09-19T21:58:38;1.90;;;0.50;;
12232;SDS011;6179;51.748;8.728;2022-09-19T22:04:39;16.63;;;1.17;;
12232;SDS011;6179;51.748;8.728;2022-09-19T22:10:40;2.63;;;0.50;;
12232;SDS011;6179;51.748;8.728;2022-09-19T22:16:41;10.30;;;1.37;;
12232;SDS011;6179;51.748;8.728;2022-09-19T22:22:42;4.47;;;0.60;;
12232;SDS011;6179;51.748;8.728;2022-09-19T22:28:43;4.93;;;0.60;;
12232;SDS011;6179;51.748;8.728;2022-09-19T22:34:44;11.00;;;0.70;;
12232;SDS011;6179;51.748;8.728;2022-09-19T22:40:45;0.90;;;0.50;;
12232;SDS011;6179;51.748;8.728;2022-09-19T22:46:46;4.93;;;0.60;;
12232;SDS011;6179;51.748;8.728;2022-09-19T22:52:46;4.93;;;0.80;;
12232;SDS011;6179;51.748;8.728;2022-09-19T22:58:47;1.50;;;0.50;;
12232;SDS011;6179;51.748;8.728;2022-09-19T23:04:49;8.27;;;0.67;;
12232;SDS011;6179;51.748;8.728;2022-09-19T23:10:57;1.63;;;0.40;;
12232;SDS011;6179;51.748;8.728;2022-09-19T23:16:59;4.77;;;0.43;;
12232;SDS011;6179;51.748;8.728;2022-09-19T23:23:00;3.53;;;0.40;;
12232;SDS011;6179;51.748;8.728;2022-09-19T23:29:02;7.17;;;0.70;;
12232;SDS011;6179;51.748;8.728;2022-09-19T23:35:04;1.43;;;0.60;;
12232;SDS011;6179;51.748;8.728;2022-09-19T23:41:06;5.40;;;0.50;;
12232;SDS011;6179;51.748;8.728;2022-09-19T23:47:09;3.33;;;0.60;;
12232;SDS011;6179;51.748;8.728;2022-09-19T23:53:10;4.27;;;0.50;;
12232;SDS011;6179;51.748;8.728;2022-09-19T23:59:12;7.50;;;0.60;;
